Time;durP1;ratioP1;P1;durP2;ratioP2;P2;SDS_P1;SDS_P2;PMS_P1;PMS_P2;Temp;Humidity;BMP_temperature;BMP_pressure;BME280_temperature;BME280_humidity;BME280_pressure;Samples;Min_cycle;Max_cycle;Signal;HPM_P1;HPM_P2
2021/11/29 00:01:48;;;;;;;2.53;2.00;;;21.90;30.00;;;;;;5024799;28;20334;-50
2021/11/29 00:04:15;;;;;;;3.38;2.15;;;21.80;30.00;;;;;;5019489;28;20102;-54
2021/11/29 00:06:40;;;;;;;2.83;1.98;;;21.80;30.00;;;;;;5025269;28;20097;-53
2021/11/29 00:09:06;;;;;;;2.97;2.22;;;21.80;30.00;;;;;;5024376;28;20080;-49
2021/11/29 00:11:32;;;;;;;3.30;2.00;;;21.80;30.00;;;;;;5024343;28;20029;-54
2021/11/29 00:13:58;;;;;;;4.20;2.20;;;21.80;30.00;;;;;;5023185;28;20022;-49
2021/11/29 00:16:24;;;;;;;2.47;1.67;;;21.80;30.00;;;;;;5024920;28;20030;-54
2021/11/29 00:18:50;;;;;;;3.40;1.83;;;21.70;29.90;;;;;;5019734;28;20037;-52
2021/11/29 00:21:15;;;;;;;3.00;1.80;;;21.80;30.00;;;;;;5022829;28;20041;-49
2021/11/29 00:23:45;;;;;;;3.35;2.22;;;21.80;30.00;;;;;;5028454;28;20164;-48
2021/11/29 00:26:13;;;;;;;2.13;1.58;;;21.80;30.00;;;;;;5024517;28;20034;-53
2021/11/29 00:28:39;;;;;;;2.15;1.60;;;21.70;30.00;;;;;;5022683;28;20540;-52
2021/11/29 00:31:05;;;;;;;1.85;1.52;;;21.70;30.00;;;;;;5022566;28;20050;-52
2021/11/29 00:33:30;;;;;;;2.25;1.52;;;21.70;30.00;;;;;;5018071;28;20049;-49
2021/11/29 00:35:56;;;;;;;2.55;1.73;;;21.70;30.00;;;;;;5025167;28;20048;-55
2021/11/29 00:38:22;;;;;;;2.45;1.70;;;21.70;30.00;;;;;;5022155;28;20026;-51
2021/11/29 00:40:48;;;;;;;2.33;1.48;;;21.70;30.00;;;;;;5024137;28;20017;-52
2021/11/29 00:43:14;;;;;;;2.10;1.52;;;21.70;30.10;;;;;;5021810;28;20029;-50
2021/11/29 00:45:40;;;;;;;2.35;1.55;;;21.70;30.10;;;;;;5022063;28;20067;-53
2021/11/29 00:48:05;;;;;;;1.98;1.38;;;21.70;30.10;;;;;;5020891;28;20116;-51
2021/11/29 00:50:36;;;;;;;2.30;1.42;;;21.70;30.10;;;;;;5019736;28;20056;-49
2021/11/29 00:53:03;;;;;;;2.20;1.40;;;21.60;30.00;;;;;;5015654;28;20034;-51
2021/11/29 00:55:29;;;;;;;2.10;1.20;;;21.70;30.10;;;;;;5014641;28;20042;-50
2021/11/29 00:57:55;;;;;;;2.50;1.30;;;21.60;30.00;;;;;;5016349;28;20449;-51
2021/11/29 01:00:21;;;;;;;1.42;1.00;;;21.60;30.00;;;;;;5015739;28;20050;-53
2021/11/29 01:02:48;;;;;;;1.50;1.30;;;21.60;30.00;;;;;;5014577;28;20034;-57
2021/11/29 01:05:14;;;;;;;1.30;1.00;;;21.60;30.00;;;;;;5015139;28;20049;-55
2021/11/29 01:07:40;;;;;;;1.58;1.08;;;21.60;30.00;;;;;;5014977;28;20120;-52
2021/11/29 01:10:08;;;;;;;1.30;0.98;;;21.60;30.00;;;;;;5021796;28;20129;-56
2021/11/29 01:12:33;;;;;;;1.60;1.10;;;21.60;30.00;;;;;;5038279;28;20116;-54
2021/11/29 01:15:00;;;;;;;1.50;1.10;;;21.60;30.00;;;;;;5032732;28;20120;-53
2021/11/29 01:17:25;;;;;;;1.77;0.95;;;21.60;30.00;;;;;;5038857;28;20112;-55
2021/11/29 01:19:51;;;;;;;0.90;0.80;;;21.60;30.00;;;;;;5034708;28;20117;-55
2021/11/29 01:22:17;;;;;;;1.98;0.90;;;21.60;30.00;;;;;;5038243;28;20087;-51
2021/11/29 01:24:43;;;;;;;1.42;0.88;;;21.60;30.00;;;;;;5035704;28;20068;-53
2021/11/29 01:27:09;;;;;;;1.30;0.80;;;21.50;30.00;;;;;;5038464;28;20056;-54
2021/11/29 01:29:35;;;;;;;1.20;0.88;;;21.60;30.00;;;;;;5028165;28;20444;-54
2021/11/29 01:32:02;;;;;;;0.70;0.70;;;21.50;30.00;;;;;;5018809;28;20385;-53
2021/11/29 01:34:28;;;;;;;1.50;0.70;;;21.50;30.00;;;;;;5029718;28;20041;-54
2021/11/29 01:36:54;;;;;;;1.20;0.73;;;21.50;30.00;;;;;;5029168;28;20026;-49
2021/11/29 01:39:20;;;;;;;1.30;0.73;;;21.50;30.00;;;;;;5022986;28;20072;-53
2021/11/29 01:41:47;;;;;;;1.27;0.85;;;21.50;30.00;;;;;;5027699;28;20041;-51
2021/11/29 01:44:13;;;;;;;1.08;0.65;;;21.50;30.00;;;;;;5034483;28;20026;-55
2021/11/29 01:46:40;;;;;;;0.77;0.70;;;21.50;30.50;;;;;;5017860;28;20067;-53
2021/11/29 01:49:06;;;;;;;1.63;0.70;;;21.50;30.00;;;;;;5018707;28;20030;-54
2021/11/29 01:51:32;;;;;;;1.10;0.60;;;21.50;30.00;;;;;;5018927;28;20084;-55
2021/11/29 01:53:58;;;;;;;1.00;0.68;;;21.50;30.00;;;;;;5021161;28;20453;-48
2021/11/29 01:56:24;;;;;;;1.35;0.70;;;21.40;30.00;;;;;;5020478;28;20038;-56
2021/11/29 01:58:50;;;;;;;0.60;0.50;;;21.40;30.00;;;;;;5037467;28;20411;-50
2021/11/29 02:01:21;;;;;;;1.30;0.80;;;21.40;30.00;;;;;;5035494;28;20149;-54
2021/11/29 02:03:51;;;;;;;1.48;0.90;;;21.40;30.00;;;;;;5034982;28;20042;-53
2021/11/29 02:06:17;;;;;;;0.88;0.70;;;21.40;30.00;;;;;;5036290;28;20116;-52
2021/11/29 02:08:43;;;;;;;1.27;0.80;;;21.40;30.00;;;;;;5035209;28;20495;-55
2021/11/29 02:11:09;;;;;;;1.35;0.50;;;21.40;30.00;;;;;;5030056;28;20125;-54
2021/11/29 02:13:36;;;;;;;1.50;0.50;;;21.40;30.00;;;;;;5017813;28;20107;-51
2021/11/29 02:16:07;;;;;;;0.93;0.47;;;21.40;30.00;;;;;;5033120;28;20041;-53
2021/11/29 02:18:34;;;;;;;0.60;0.45;;;21.40;30.00;;;;;;5035029;28;20034;-51
2021/11/29 02:21:17;;;;;;;1.27;0.50;;;21.40;30.00;;;;;;5022554;28;20053;-49
2021/11/29 02:23:49;;;;;;;0.70;0.50;;;21.40;30.00;;;;;;5017459;28;20034;-50
2021/11/29 02:26:18;;;;;;;0.75;0.57;;;21.40;30.00;;;;;;5026643;28;20038;-54
2021/11/29 02:28:47;;;;;;;0.70;0.50;;;21.40;30.50;;;;;;5018000;28;20076;-50
2021/11/29 02:31:21;;;;;;;0.70;0.30;;;21.40;30.00;;;;;;5037699;28;20033;-49
2021/11/29 02:33:47;;;;;;;1.45;0.50;;;21.40;30.00;;;;;;5034598;28;20459;-51
2021/11/29 02:36:13;;;;;;;0.60;0.40;;;21.40;30.00;;;;;;5018355;28;20038;-53
2021/11/29 02:38:39;;;;;;;0.70;0.47;;;21.30;30.00;;;;;;5018534;28;20050;-54
2021/11/29 02:41:06;;;;;;;0.82;0.40;;;21.30;30.00;;;;;;5022911;28;20057;-50
2021/11/29 02:43:32;;;;;;;0.90;0.40;;;21.30;30.00;;;;;;5036490;28;20353;-57
2021/11/29 02:45:58;;;;;;;0.75;0.43;;;21.30;30.00;;;;;;5028896;28;20405;-54
2021/11/29 02:48:48;;;;;;;0.82;0.50;;;21.30;30.00;;;;;;5017339;28;20036;-55
2021/11/29 02:51:33;;;;;;;0.40;0.30;;;21.30;29.90;;;;;;5036016;28;20387;-51
2021/11/29 02:54:09;;;;;;;0.60;0.40;;;21.30;30.00;;;;;;5031627;28;20097;-56
2021/11/29 02:56:38;;;;;;;0.75;0.50;;;21.30;30.00;;;;;;5027869;28;20128;-52
2021/11/29 02:59:11;;;;;;;1.10;0.40;;;21.30;30.00;;;;;;5018038;28;20034;-49
2021/11/29 03:01:41;;;;;;;0.95;0.50;;;21.20;30.40;;;;;;5032816;28;20030;-53
2021/11/29 03:04:07;;;;;;;0.60;0.40;;;21.30;30.00;;;;;;5034606;28;20124;-49
2021/11/29 03:06:33;;;;;;;0.65;0.40;;;21.20;29.90;;;;;;5016886;28;20461;-53
2021/11/29 03:08:59;;;;;;;0.68;0.50;;;21.20;29.90;;;;;;5034128;28;20075;-47
2021/11/29 03:11:27;;;;;;;0.25;0.20;;;21.20;29.90;;;;;;5027829;28;20022;-51
2021/11/29 03:13:53;;;;;;;0.35;0.30;;;21.20;29.90;;;;;;5017451;28;20053;-48
2021/11/29 03:16:20;;;;;;;1.40;0.32;;;21.30;29.90;;;;;;5016643;28;20045;-47
2021/11/29 03:18:46;;;;;;;0.60;0.45;;;21.20;29.90;;;;;;5030860;28;20364;-52
2021/11/29 03:21:16;;;;;;;0.75;0.30;;;21.20;29.90;;;;;;5036706;28;20057;-48
2021/11/29 03:23:42;;;;;;;0.60;0.30;;;21.20;29.90;;;;;;5035363;28;20399;-51
2021/11/29 03:26:12;;;;;;;0.60;0.30;;;21.20;29.90;;;;;;5021462;28;20030;-52
2021/11/29 03:28:40;;;;;;;0.88;0.38;;;21.20;29.90;;;;;;5035815;28;20033;-49
2021/11/29 03:31:08;;;;;;;0.40;0.20;;;21.20;29.90;;;;;;5016498;28;20045;-55
2021/11/29 03:33:35;;;;;;;0.73;0.35;;;21.20;30.40;;;;;;5017426;28;20057;-48
2021/11/29 03:36:03;;;;;;;0.52;0.40;;;21.20;29.90;;;;;;5033619;28;20045;-51
2021/11/29 03:38:29;;;;;;;0.68;0.40;;;21.20;29.90;;;;;;5034777;28;20389;-53
2021/11/29 03:40:56;;;;;;;0.52;0.30;;;21.20;29.90;;;;;;5035518;28;20068;-54
2021/11/29 03:43:22;;;;;;;0.50;0.32;;;21.20;29.90;;;;;;5028685;28;20041;-56
2021/11/29 03:45:48;;;;;;;0.60;0.22;;;21.20;29.90;;;;;;5031846;28;21555;-53
2021/11/29 03:48:14;;;;;;;0.45;0.30;;;21.20;29.90;;;;;;5029757;28;20052;-54
2021/11/29 03:50:40;;;;;;;0.35;0.30;;;21.10;29.90;;;;;;5019273;28;20441;-51
2021/11/29 03:53:06;;;;;;;0.45;0.30;;;21.20;29.90;;;;;;5023461;28;20030;-53
2021/11/29 03:55:31;;;;;;;0.35;0.30;;;21.10;29.90;;;;;;5023356;28;20042;-53
2021/11/29 03:57:57;;;;;;;1.13;0.30;;;21.10;29.90;;;;;;5028007;28;20112;-55
2021/11/29 04:00:23;;;;;;;0.40;0.20;;;21.10;29.90;;;;;;5033618;28;20129;-54
2021/11/29 04:02:49;;;;;;;0.30;0.20;;;21.10;29.80;;;;;;5027469;28;20044;-53
2021/11/29 04:05:15;;;;;;;0.50;0.20;;;21.10;29.90;;;;;;5034843;28;20044;-52
2021/11/29 04:07:42;;;;;;;0.45;0.30;;;21.10;29.90;;;;;;5028458;28;20025;-53
2021/11/29 04:10:08;;;;;;;0.70;0.30;;;21.10;29.90;;;;;;5015884;28;20049;-53
2021/11/29 04:12:34;;;;;;;0.70;0.30;;;21.10;29.90;;;;;;5017063;28;20026;-52
2021/11/29 04:15:01;;;;;;;0.50;0.30;;;21.10;29.90;;;;;;5026503;28;20075;-53
2021/11/29 04:17:27;;;;;;;0.52;0.38;;;21.10;29.90;;;;;;5015645;28;20433;-50
2021/11/29 04:19:53;;;;;;;0.63;0.30;;;21.10;30.40;;;;;;5025530;28;20099;-53
2021/11/29 04:22:19;;;;;;;0.57;0.20;;;21.10;29.90;;;;;;5025999;28;20539;-48
2021/11/29 04:24:47;;;;;;;0.30;0.20;;;21.10;29.90;;;;;;5023506;28;20124;-55
2021/11/29 04:27:13;;;;;;;0.30;0.20;;;21.00;29.90;;;;;;5016354;28;20041;-51
2021/11/29 04:29:42;;;;;;;0.35;0.30;;;21.00;29.90;;;;;;5021674;28;20056;-50
2021/11/29 04:32:09;;;;;;;0.63;0.38;;;21.00;29.90;;;;;;5017170;28;20456;-51
2021/11/29 04:34:35;;;;;;;0.28;0.20;;;21.00;29.90;;;;;;5024664;28;20049;-55
2021/11/29 04:37:04;;;;;;;0.20;0.20;;;21.00;29.90;;;;;;5019290;28;20408;-50
2021/11/29 04:39:31;;;;;;;0.50;0.30;;;21.00;29.90;;;;;;5015849;28;20061;-56
2021/11/29 04:41:57;;;;;;;0.63;0.30;;;21.00;29.90;;;;;;5031807;28;20044;-50
2021/11/29 04:44:23;;;;;;;0.40;0.30;;;21.00;29.90;;;;;;5034130;28;20037;-51
2021/11/29 04:46:49;;;;;;;0.40;0.15;;;21.00;29.90;;;;;;5023080;28;20115;-53
2021/11/29 04:49:15;;;;;;;0.57;0.20;;;20.90;29.90;;;;;;5016204;28;20033;-54
2021/11/29 04:51:41;;;;;;;0.40;0.20;;;21.00;29.90;;;;;;5015885;28;20034;-51
2021/11/29 04:54:09;;;;;;;0.20;0.20;;;21.00;29.90;;;;;;5015398;28;20332;-51
2021/11/29 04:56:36;;;;;;;0.50;0.20;;;21.00;29.90;;;;;;5015666;28;20057;-51
2021/11/29 04:59:02;;;;;;;0.50;0.30;;;21.00;29.90;;;;;;5019134;28;20026;-50
2021/11/29 05:01:29;;;;;;;0.68;0.40;;;21.00;29.90;;;;;;5025135;28;20026;-52
2021/11/29 05:03:54;;;;;;;0.30;0.20;;;21.00;29.90;;;;;;5015191;28;20029;-50
2021/11/29 05:06:20;;;;;;;0.45;0.20;;;21.00;29.90;;;;;;5016012;28;20423;-53
2021/11/29 05:08:46;;;;;;;0.45;0.30;;;20.90;29.90;;;;;;5032600;28;20033;-54
2021/11/29 05:11:12;;;;;;;0.50;0.17;;;20.90;29.90;;;;;;5017547;28;20038;-50
2021/11/29 05:13:38;;;;;;;0.52;0.25;;;21.00;29.90;;;;;;5030740;28;20037;-54
2021/11/29 05:16:05;;;;;;;0.38;0.20;;;20.90;29.90;;;;;;5034042;28;20437;-49
2021/11/29 05:18:31;;;;;;;0.10;0.10;;;20.90;29.90;;;;;;5018934;28;20117;-48
2021/11/29 05:20:57;;;;;;;1.05;0.20;;;20.90;29.90;;;;;;5015713;28;20041;-50
2021/11/29 05:23:23;;;;;;;1.20;0.45;;;20.90;29.90;;;;;;5026994;28;20025;-48
2021/11/29 05:25:50;;;;;;;1.38;0.52;;;20.90;29.90;;;;;;5026595;28;20057;-47
2021/11/29 05:28:16;;;;;;;0.65;0.38;;;20.90;29.90;;;;;;5014920;28;20457;-49
2021/11/29 05:30:42;;;;;;;0.47;0.20;;;20.90;29.90;;;;;;5015765;28;20034;-52
2021/11/29 05:33:08;;;;;;;0.47;0.30;;;20.90;29.90;;;;;;5032659;28;20098;-52
2021/11/29 05:35:34;;;;;;;1.25;0.30;;;20.90;29.90;;;;;;5032282;28;20364;-48
2021/11/29 05:38:01;;;;;;;0.55;0.30;;;20.90;29.90;;;;;;5017951;28;20121;-50
2021/11/29 05:40:27;;;;;;;0.17;0.10;;;20.90;29.90;;;;;;5015818;28;20034;-51
2021/11/29 05:42:53;;;;;;;0.40;0.30;;;20.90;29.90;;;;;;5028882;28;20037;-55
2021/11/29 05:45:19;;;;;;;1.38;0.40;;;20.80;29.80;;;;;;5032461;28;20364;-53
2021/11/29 05:47:44;;;;;;;0.35;0.10;;;20.90;29.90;;;;;;5018951;28;20030;-49
2021/11/29 05:50:13;;;;;;;0.73;0.30;;;20.80;29.80;;;;;;5015665;28;20180;-54
2021/11/29 05:52:39;;;;;;;0.68;0.20;;;20.80;29.80;;;;;;5014502;28;20441;-54
2021/11/29 05:55:07;;;;;;;0.52;0.20;;;20.80;29.80;;;;;;5020708;28;20138;-52
2021/11/29 05:57:33;;;;;;;0.90;0.40;;;20.80;29.80;;;;;;5015853;28;20034;-49
2021/11/29 06:00:00;;;;;;;1.05;0.20;;;20.80;29.80;;;;;;5023839;28;20481;-50
2021/11/29 06:02:25;;;;;;;0.35;0.20;;;20.80;29.80;;;;;;5025023;28;20036;-53
2021/11/29 06:04:51;;;;;;;0.52;0.30;;;20.80;29.80;;;;;;5018271;28;20033;-53
2021/11/29 06:07:17;;;;;;;0.30;0.20;;;20.80;29.80;;;;;;5019971;28;20062;-49
2021/11/29 06:09:43;;;;;;;0.80;0.20;;;20.80;29.80;;;;;;5018158;28;20045;-47
2021/11/29 06:12:09;;;;;;;0.52;0.20;;;20.80;29.80;;;;;;5027313;28;20120;-52
2021/11/29 06:14:35;;;;;;;3.80;0.40;;;20.80;29.80;;;;;;5017993;28;20033;-50
2021/11/29 06:17:00;;;;;;;0.80;0.20;;;20.80;29.80;;;;;;5033497;28;20031;-50
2021/11/29 06:19:27;;;;;;;0.20;0.20;;;20.80;29.80;;;;;;5037448;28;20133;-49
2021/11/29 06:21:53;;;;;;;1.20;0.38;;;20.80;29.90;;;;;;5034006;28;20392;-48
2021/11/29 06:24:19;;;;;;;0.50;0.20;;;20.70;29.80;;;;;;5019658;28;20113;-50
2021/11/29 06:26:45;;;;;;;0.50;0.20;;;20.70;29.80;;;;;;5018893;28;20076;-47
2021/11/29 06:29:11;;;;;;;0.40;0.30;;;20.70;29.80;;;;;;5017970;28;20401;-52
2021/11/29 06:31:37;;;;;;;0.32;0.15;;;20.80;29.90;;;;;;5018876;28;20033;-55
2021/11/29 06:34:03;;;;;;;0.60;0.30;;;20.70;29.80;;;;;;5017778;28;20105;-53
2021/11/29 06:36:29;;;;;;;1.02;0.38;;;20.70;29.80;;;;;;5020557;28;20046;-54
2021/11/29 06:38:57;;;;;;;0.70;0.28;;;20.70;29.80;;;;;;5025769;28;20037;-52
2021/11/29 06:41:24;;;;;;;1.15;0.30;;;20.70;29.90;;;;;;5022814;28;20029;-52
2021/11/29 06:43:50;;;;;;;0.63;0.20;;;20.70;29.90;;;;;;5021942;28;20029;-53
2021/11/29 06:46:17;;;;;;;0.85;0.30;;;20.70;29.90;;;;;;5022344;28;20026;-51
2021/11/29 06:48:43;;;;;;;1.27;0.40;;;20.70;29.90;;;;;;5036725;28;20025;-56
2021/11/29 06:51:11;;;;;;;1.75;0.60;;;20.70;29.90;;;;;;5023321;28;20443;-51
2021/11/29 06:53:37;;;;;;;1.42;0.30;;;20.70;29.90;;;;;;5017088;28;20041;-55
2021/11/29 06:56:04;;;;;;;0.40;0.30;;;20.70;29.90;;;;;;5026959;28;20073;-57
2021/11/29 06:58:30;;;;;;;0.38;0.20;;;20.70;29.90;;;;;;5017276;28;20033;-53
2021/11/29 07:00:56;;;;;;;0.20;0.20;;;20.70;29.90;;;;;;5022496;28;20068;-56
2021/11/29 07:03:22;;;;;;;0.98;0.30;;;20.70;29.90;;;;;;5035923;28;20404;-52
2021/11/29 07:05:51;;;;;;;0.50;0.30;;;20.70;29.90;;;;;;5034291;28;20037;-56
2021/11/29 07:08:18;;;;;;;1.52;0.50;;;20.70;29.90;;;;;;5033905;28;20120;-52
2021/11/29 07:10:45;;;;;;;1.10;0.52;;;20.70;29.90;;;;;;5033413;28;20164;-57
2021/11/29 07:13:12;;;;;;;0.98;0.30;;;20.70;30.00;;;;;;5033408;28;20021;-57
2021/11/29 07:15:40;;;;;;;0.40;0.20;;;20.70;30.00;;;;;;5034827;28;20099;-51
2021/11/29 07:18:06;;;;;;;0.50;0.30;;;20.70;30.00;;;;;;5020442;28;20380;-55
2021/11/29 07:20:32;;;;;;;1.00;0.20;;;20.70;30.00;;;;;;5024463;28;20025;-57
2021/11/29 07:22:59;;;;;;;0.40;0.30;;;20.70;30.00;;;;;;5016686;28;20392;-55
2021/11/29 07:25:25;;;;;;;0.93;0.30;;;20.60;29.90;;;;;;5031814;28;20061;-57
2021/11/29 07:27:51;;;;;;;0.93;0.30;;;20.60;30.00;;;;;;5026909;28;20397;-52
2021/11/29 07:30:20;;;;;;;1.27;0.30;;;20.70;30.00;;;;;;5021097;28;20377;-52
2021/11/29 07:32:46;;;;;;;1.20;0.40;;;20.60;30.00;;;;;;5034262;28;20037;-53
2021/11/29 07:35:13;;;;;;;0.50;0.22;;;20.60;30.00;;;;;;5029371;28;20662;-54
2021/11/29 07:37:39;;;;;;;0.93;0.40;;;20.60;30.00;;;;;;5032921;28;20368;-51
2021/11/29 07:40:07;;;;;;;2.60;0.50;;;20.70;30.00;;;;;;5016741;28;20038;-53
2021/11/29 07:42:33;;;;;;;1.08;0.40;;;20.60;30.00;;;;;;5032326;28;20030;-52
2021/11/29 07:44:59;;;;;;;0.75;0.30;;;20.70;30.10;;;;;;5014762;28;20057;-54
2021/11/29 07:47:25;;;;;;;2.42;0.95;;;20.60;30.10;;;;;;5002511;28;20052;-54
2021/11/29 07:49:52;;;;;;;1.73;0.70;;;20.60;30.10;;;;;;5020870;28;20377;-54
2021/11/29 07:52:18;;;;;;;1.70;0.55;;;20.70;30.20;;;;;;5024070;28;20025;-54
2021/11/29 07:54:44;;;;;;;1.50;0.60;;;20.70;30.30;;;;;;5035506;28;20037;-53
2021/11/29 07:57:13;;;;;;;1.88;0.68;;;20.80;30.30;;;;;;5028079;28;20044;-52
2021/11/29 07:59:39;;;;;;;2.75;0.73;;;20.80;30.30;;;;;;5030860;28;20049;-52
2021/11/29 08:02:05;;;;;;;2.17;0.63;;;20.90;30.30;;;;;;5017176;28;20061;-52
2021/11/29 08:04:31;;;;;;;2.05;0.80;;;21.00;30.30;;;;;;5020061;28;20022;-57
2021/11/29 08:06:57;;;;;;;3.10;0.77;;;21.10;30.30;;;;;;5016551;28;20118;-54
2021/11/29 08:09:23;;;;;;;2.83;0.70;;;21.20;30.20;;;;;;5015898;28;20115;-57
2021/11/29 08:11:49;;;;;;;1.40;0.60;;;21.30;30.20;;;;;;5015863;28;20037;-51
2021/11/29 08:14:15;;;;;;;1.80;0.80;;;21.40;30.10;;;;;;5017328;28;20041;-55
2021/11/29 08:16:40;;;;;;;1.13;0.60;;;21.50;30.00;;;;;;5015483;28;20045;-52
2021/11/29 08:19:06;;;;;;;2.03;0.93;;;21.60;30.00;;;;;;5016528;28;20026;-52
2021/11/29 08:21:32;;;;;;;1.98;0.63;;;21.70;30.00;;;;;;5023418;28;20429;-53
2021/11/29 08:23:58;;;;;;;1.63;0.50;;;21.80;30.00;;;;;;5031340;28;20021;-54
2021/11/29 08:26:25;;;;;;;0.73;0.50;;;21.90;29.90;;;;;;5016674;28;20161;-54
2021/11/29 08:28:51;;;;;;;1.33;0.50;;;22.00;29.90;;;;;;5022618;28;20087;-51
2021/11/29 08:31:17;;;;;;;1.65;0.40;;;22.10;29.80;;;;;;5023314;28;20025;-54
2021/11/29 08:33:43;;;;;;;0.80;0.38;;;22.20;29.80;;;;;;5023492;28;20429;-53
2021/11/29 08:36:09;;;;;;;1.95;0.70;;;22.30;29.70;;;;;;5022109;28;20057;-56
2021/11/29 08:38:34;;;;;;;1.92;0.63;;;22.30;29.60;;;;;;5023111;28;20033;-52
2021/11/29 08:41:01;;;;;;;2.38;0.70;;;22.40;29.60;;;;;;5022354;28;20022;-51
2021/11/29 08:43:27;;;;;;;2.15;0.85;;;22.50;29.60;;;;;;5030257;28;20040;-54
2021/11/29 08:45:53;;;;;;;1.15;0.60;;;22.60;29.50;;;;;;5035531;28;20034;-55
2021/11/29 08:48:24;;;;;;;1.60;0.70;;;22.60;29.50;;;;;;5027985;28;20119;-55
2021/11/29 08:50:54;;;;;;;1.25;0.52;;;22.70;29.50;;;;;;5022679;28;20037;-54
2021/11/29 08:53:23;;;;;;;1.13;0.45;;;22.70;29.40;;;;;;5024353;28;20065;-52
2021/11/29 08:55:49;;;;;;;1.48;0.57;;;22.80;29.40;;;;;;5014647;28;20082;-50
2021/11/29 08:58:15;;;;;;;0.80;0.60;;;22.80;29.30;;;;;;5018349;28;20056;-54
2021/11/29 09:00:44;;;;;;;0.70;0.50;;;22.80;29.30;;;;;;5013782;28;20180;-50
2021/11/29 09:03:11;;;;;;;1.33;0.55;;;22.90;29.30;;;;;;5014144;28;20053;-53
2021/11/29 09:05:39;;;;;;;2.83;0.50;;;22.90;29.30;;;;;;5014711;28;20026;-50
2021/11/29 09:08:05;;;;;;;2.22;0.50;;;23.00;29.30;;;;;;5015541;28;20129;-53
2021/11/29 09:10:32;;;;;;;0.95;0.57;;;23.00;29.20;;;;;;5015220;28;20045;-53
2021/11/29 09:12:58;;;;;;;1.00;0.38;;;23.10;29.20;;;;;;5021985;28;20407;-49
2021/11/29 09:15:25;;;;;;;1.15;0.60;;;23.10;29.20;;;;;;5018563;28;20029;-57
2021/11/29 09:17:51;;;;;;;1.00;0.60;;;23.20;29.10;;;;;;5021908;28;20424;-53
2021/11/29 09:20:20;;;;;;;0.75;0.40;;;23.20;29.10;;;;;;5021642;28;20507;-52
2021/11/29 09:22:46;;;;;;;1.23;0.40;;;23.20;29.10;;;;;;5023706;28;20030;-53
2021/11/29 09:25:12;;;;;;;0.80;0.35;;;23.30;29.10;;;;;;5021095;28;20057;-57
2021/11/29 09:27:39;;;;;;;0.52;0.30;;;23.40;29.10;;;;;;5016873;28;20029;-54
2021/11/29 09:30:08;;;;;;;0.70;0.43;;;23.40;29.10;;;;;;5025568;28;20115;-50
2021/11/29 09:32:37;;;;;;;0.65;0.43;;;23.40;29.10;;;;;;5026418;28;21247;-56
2021/11/29 09:35:05;;;;;;;1.10;0.45;;;23.40;29.00;;;;;;5026482;28;20049;-52
2021/11/29 09:37:31;;;;;;;1.40;0.43;;;23.50;29.00;;;;;;5032766;28;20403;-57
2021/11/29 09:39:57;;;;;;;1.42;0.57;;;23.50;29.00;;;;;;5018994;28;20034;-51
2021/11/29 09:42:23;;;;;;;0.98;0.45;;;23.50;29.00;;;;;;5024245;28;20030;-56
2021/11/29 09:44:53;;;;;;;0.82;0.32;;;23.50;29.00;;;;;;5026268;28;21553;-56
2021/11/29 09:47:21;;;;;;;2.25;0.80;;;23.50;29.00;;;;;;5026102;28;20038;-55
2021/11/29 09:49:52;;;;;;;0.82;0.30;;;23.50;29.10;;;;;;5016934;28;20113;-50
2021/11/29 09:52:21;;;;;;;2.17;0.50;;;23.50;29.00;;;;;;5022446;28;20384;-56
2021/11/29 09:54:48;;;;;;;0.40;0.30;;;23.50;29.10;;;;;;5030269;28;21407;-57
2021/11/29 09:57:14;;;;;;;0.57;0.35;;;23.50;29.10;;;;;;5032813;28;20334;-59
2021/11/29 09:59:40;;;;;;;0.80;0.38;;;23.50;29.30;;;;;;5031201;28;20057;-56
2021/11/29 10:02:12;;;;;;;0.88;0.30;;;23.50;29.40;;;;;;5019057;28;20060;-51
2021/11/29 10:04:51;;;;;;;0.47;0.35;;;23.50;29.50;;;;;;5021981;28;20176;-57
2021/11/29 10:07:45;;;;;;;1.77;0.30;;;23.50;29.60;;;;;;5037379;28;20096;-54
2021/11/29 10:10:14;;;;;;;0.40;0.38;;;23.50;29.70;;;;;;5017028;28;20041;-58
2021/11/29 10:12:40;;;;;;;1.35;0.43;;;23.40;29.70;;;;;;5037135;28;20453;-55
2021/11/29 10:15:25;;;;;;;0.88;0.35;;;23.40;29.80;;;;;;5036233;28;20124;-53
2021/11/29 10:18:12;;;;;;;0.30;0.20;;;23.40;29.80;;;;;;5034498;28;20030;-55
2021/11/29 10:21:08;;;;;;;0.63;0.30;;;23.40;29.90;;;;;;5017327;28;20081;-53
2021/11/29 10:23:46;;;;;;;0.93;0.50;;;23.40;29.90;;;;;;5024944;28;20030;-58
2021/11/29 10:26:22;;;;;;;1.27;0.30;;;23.40;30.00;;;;;;5028437;28;20034;-55
2021/11/29 10:28:55;;;;;;;1.55;0.43;;;23.40;30.00;;;;;;5030432;28;20033;-59
2021/11/29 10:31:38;;;;;;;0.30;0.30;;;23.50;30.00;;;;;;5018294;28;20065;-52
2021/11/29 10:34:03;;;;;;;0.95;0.43;;;23.50;30.00;;;;;;5019788;28;20087;-53
2021/11/29 10:36:49;;;;;;;0.73;0.20;;;23.50;30.10;;;;;;5027520;28;20404;-47
2021/11/29 10:39:22;;;;;;;0.68;0.30;;;23.60;30.00;;;;;;5034662;28;20038;-52
2021/11/29 10:41:50;;;;;;;0.80;0.35;;;23.60;30.00;;;;;;5028797;28;20053;-50
2021/11/29 10:44:19;;;;;;;0.63;0.38;;;23.50;30.00;;;;;;5032978;28;20029;-51
2021/11/29 10:46:55;;;;;;;0.32;0.30;;;23.50;30.00;;;;;;5035456;28;20445;-49
2021/11/29 10:49:25;;;;;;;0.93;0.40;;;23.40;30.00;;;;;;5036825;28;20452;-53
2021/11/29 10:51:52;;;;;;;0.50;0.45;;;23.30;30.00;;;;;;5030503;28;20022;-49
2021/11/29 10:54:24;;;;;;;1.08;0.45;;;23.30;30.00;;;;;;5017375;28;20431;-51
2021/11/29 10:56:51;;;;;;;0.82;0.40;;;23.20;30.00;;;;;;5018030;28;20480;-54
2021/11/29 10:59:20;;;;;;;0.73;0.30;;;23.20;30.00;;;;;;5021669;28;20026;-52
2021/11/29 11:01:47;;;;;;;0.68;0.25;;;23.10;30.00;;;;;;5018115;28;20099;-48
2021/11/29 11:04:22;;;;;;;0.73;0.30;;;23.10;30.10;;;;;;5016499;28;20499;-49
2021/11/29 11:06:56;;;;;;;0.70;0.40;;;23.10;30.10;;;;;;5017100;28;20034;-49
2021/11/29 11:09:24;;;;;;;;;;;23.00;30.00;;;;;;5019573;28;20373;-56
2021/11/29 11:11:53;;;;;;;1.20;0.82;;;23.00;30.10;;;;;;5036523;28;19920;-50
2021/11/29 11:14:26;;;;;;;0.60;0.30;;;22.90;30.20;;;;;;5028182;28;20034;-52
2021/11/29 11:16:56;;;;;;;0.73;0.35;;;22.90;30.10;;;;;;5017103;28;20065;-50
2021/11/29 11:19:40;;;;;;;0.80;0.38;;;22.90;30.20;;;;;;5017992;28;20087;-51
2021/11/29 11:22:45;;;;;;;0.75;0.50;;;22.90;30.20;;;;;;5016992;28;20291;-49
2021/11/29 11:25:14;;;;;;;0.82;0.30;;;22.90;30.20;;;;;;4975532;28;20417;-51
2021/11/29 11:27:58;;;;;;;0.75;0.30;;;22.80;30.20;;;;;;4975362;28;20146;-49
2021/11/29 11:30:26;;;;;;;0.40;0.30;;;22.80;30.20;;;;;;5001216;28;20088;-50
2021/11/29 11:33:15;;;;;;;0.30;0.20;;;22.80;30.30;;;;;;5016113;28;20045;-47
2021/11/29 11:35:44;;;;;;;0.57;0.30;;;22.80;30.90;;;;;;5034640;28;20041;-49
2021/11/29 11:38:17;;;;;;;1.08;0.30;;;22.70;30.30;;;;;;5036247;28;20402;-49
2021/11/29 11:40:47;;;;;;;0.50;0.30;;;22.80;30.40;;;;;;5017026;28;20053;-50
2021/11/29 11:43:15;;;;;;;0.50;0.28;;;22.80;30.40;;;;;;5015275;28;20412;-53
2021/11/29 11:45:44;;;;;;;0.38;0.20;;;22.70;30.40;;;;;;5034759;28;20048;-50
2021/11/29 11:48:11;;;;;;;0.30;0.20;;;22.70;30.30;;;;;;5019966;28;20025;-51
2021/11/29 11:50:42;;;;;;;0.75;0.30;;;22.70;30.40;;;;;;5022236;28;20080;-51
2021/11/29 11:53:08;;;;;;;0.57;0.30;;;22.70;30.40;;;;;;5034775;28;20060;-56
2021/11/29 11:55:41;;;;;;;0.50;0.32;;;22.70;30.50;;;;;;5025693;28;20477;-56
2021/11/29 11:58:19;;;;;;;1.30;0.30;;;22.70;30.60;;;;;;5020579;28;20471;-56
2021/11/29 12:01:08;;;;;;;0.70;0.30;;;22.70;30.60;;;;;;5030567;28;20270;-54
2021/11/29 12:03:38;;;;;;;0.82;0.40;;;22.70;30.70;;;;;;5034470;28;20112;-56
2021/11/29 12:06:13;;;;;;;0.88;0.40;;;22.70;30.80;;;;;;5028751;28;20030;-53
2021/11/29 12:08:42;;;;;;;1.05;0.32;;;22.60;30.80;;;;;;5023954;28;20037;-54
2021/11/29 12:11:23;;;;;;;0.88;0.40;;;22.60;30.90;;;;;;5034640;28;20469;-55
2021/11/29 12:13:50;;;;;;;0.30;0.10;;;22.60;30.90;;;;;;5025420;28;20577;-54
2021/11/29 12:16:41;;;;;;;0.82;0.30;;;22.70;31.00;;;;;;5018563;28;20037;-52
2021/11/29 12:19:40;;;;;;;0.77;0.40;;;22.70;31.10;;;;;;5030045;28;20029;-49
2021/11/29 12:22:21;;;;;;;0.22;0.20;;;22.60;31.10;;;;;;5030645;28;20353;-52
2021/11/29 12:24:52;;;;;;;0.68;0.22;;;22.60;31.10;;;;;;5014254;28;20403;-55
2021/11/29 12:27:18;;;;;;;0.30;0.30;;;22.60;31.20;;;;;;5015810;28;20030;-52
2021/11/29 12:29:53;;;;;;;0.85;0.20;;;22.60;31.20;;;;;;5019693;28;20103;-54
2021/11/29 12:32:19;;;;;;;;;;;22.60;31.20;;;;;;5019294;28;20033;-51
2021/11/29 12:37:18;;;;;;;0.57;0.30;;;22.60;31.30;;;;;;5021612;28;20488;-54
2021/11/29 12:39:43;;;;;;;0.50;0.30;;;22.60;31.30;;;;;;5018149;28;20096;-51
2021/11/29 12:42:27;;;;;;;0.38;0.30;;;22.60;31.30;;;;;;5024330;28;20030;-50
2021/11/29 12:45:08;;;;;;;2.38;0.25;;;22.60;31.30;;;;;;5022095;28;20108;-51
2021/11/29 12:47:45;;;;;;;0.98;0.45;;;22.60;31.30;;;;;;5024122;28;20466;-54
2021/11/29 12:50:39;;;;;;;1.52;0.30;;;22.60;31.30;;;;;;5014675;28;20079;-53
2021/11/29 12:53:08;;;;;;;0.47;0.22;;;22.60;31.30;;;;;;5020074;28;20163;-49
2021/11/29 12:55:36;;;;;;;0.60;0.30;;;22.60;31.40;;;;;;5021907;28;20046;-54
2021/11/29 12:58:18;;;;;;;0.55;0.20;;;22.60;31.40;;;;;;5024023;28;20026;-59